Latest Coastal Weather Observations for Edithburgh

IDS60701

Issued at 12:11 am CST Monday 15 April 2024 (issued every 10 minutes, with the page automatically refreshed every 10 minutes)

About coastal observations | Map of coastal stations | Coastal observations for SA | Marine services | Other Formats
Station Details ID: 022046 Name: EDITHBURGH Lat: -35.11 Lon: 137.74 Height: 6.0 m
Data from the previous 72 hours. | See also: Recent months at Edithburgh
Date/Time
CST
Wind Sea
Height
m
Swell Vis
km
Cloud Weather Temp
°C
Press
MSL
hPa
Rain since
9am
mm
Dir  Spd
kts
Gust
kts
Height
m
Period
s
Dir
15/12:00am SE 7 9 - - - - - - - 15.4 1024.2 0.0
 
Date/Time
CST
Wind Sea
Height
m
Swell Vis
km
Cloud Weather Temp
°C
Press
MSL
hPa
Rain since
9am
mm
Dir  Spd
kts
Gust
kts
Height
m
Period
s
Dir
14/11:30pm SE 9 11 - - - - - - - 15.3 1024.4 0.0
14/11:00pm SE 8 11 - - - - - - - 15.1 1024.5 0.0
14/10:30pm SE 9 13 - - - - - - - 15.3 1024.6 0.0
14/10:00pm SSE 9 12 - - - - - - - 15.3 1024.6 0.0
14/09:30pm SSE 8 12 - - - - - - - 15.3 1024.5 0.0
14/09:00pm SSE 9 11 - - - - - - - 15.4 1024.4 0.0
14/08:30pm SSE 9 12 - - - - - - - 15.4 1024.4 0.0
14/08:00pm SSE 9 14 - - - - - - - 15.4 1024.3 0.0
14/07:30pm SSE 10 13 - - - - - - - 15.6 1024.1 0.0
14/07:00pm S 9 13 - - - - - - - 15.6 1023.8 0.0
14/06:30pm S 8 11 - - - - - - - 15.8 1023.5 0.0
14/06:00pm SSW 9 11 - - - - - - - 16.1 1023.3 0.0
14/05:30pm SSW 8 10 - - - - - - - 16.9 1023.1 0.0
14/05:00pm SSW 9 11 - - - - - - - 17.2 1022.8 0.0
14/04:30pm SSW 9 12 - - - - - - - 17.8 1022.7 0.0
14/04:00pm S 9 12 - - - - - - - 17.9 1022.5 0.0
14/03:30pm S 8 11 - - - - - - - 18.3 1022.5 0.0
14/03:00pm SSE 9 12 - - - - - - - 18.4 1022.5 0.0
14/02:30pm SSE 8 11 - - - - - - - 18.1 1022.5 0.0
14/02:00pm SSE 9 11 - - - - - - - 18.6 1022.5 0.0
14/01:30pm SSE 8 12 - - - - - - - 19.5 1022.6 0.0
14/01:00pm SSE 8 12 - - - - - - - 18.2 1022.8 0.0
14/12:30pm SE 7 9 - - - - - - - 18.7 1023.2 0.0
14/12:00pm SE 7 10 - - - - - - - 18.7 1023.5 0.0
14/11:30am E 5 8 - - - - - - - 19.3 1023.8 0.0
14/11:00am NE 6 9 - - - - - - - 18.8 1023.7 0.0
14/10:30am NE 6 8 - - - - - - - 18.5 1023.7 0.0
14/10:00am NNE 5 8 - - - - - - - 18.8 1023.8 0.0
14/09:30am SE 5 7 - - - - - - - 17.9 1023.8 0.0
14/09:00am SE 5 6 - - - - - - - 17.5 1024.1 0.0
14/08:30am SE 5 7 - - - - - - - 17.5 1024.0 0.0
14/08:00am SE 2 3 - - - - - - - 14.5 1023.9 0.0
14/07:30am S 1 2 - - - - - - - 11.4 1023.5 0.0
14/07:00am S 1 2 - - - - - - - 10.7 1023.5 0.0
14/06:30am ESE 1 2 - - - - - - - 10.3 1023.2 0.0
14/06:00am ESE 1 3 - - - - - - - 12.3 1023.0 0.0
14/05:30am E 3 4 - - - - - - - 12.4 1022.9 0.0
14/05:00am E 4 5 - - - - - - - 13.0 1022.7 0.0
14/04:30am SE 3 4 - - - - - - - 13.4 1022.7 0.0
14/04:00am SE 4 6 - - - - - - - 13.6 1022.7 0.0
14/03:30am ESE 5 7 - - - - - - - 13.7 1022.7 0.0
14/03:00am ESE 5 7 - - - - - - - 13.8 1022.8 0.0
14/02:30am SE 5 7 - - - - - - - 13.4 1023.1 0.0
14/02:00am SE 5 7 - - - - - - - 13.4 1023.4 0.0
14/01:30am SE 4 6 - - - - - - - 13.2 1023.7 0.0
14/01:00am SE 6 8 - - - - - - - 13.6 1023.7 0.0
14/12:30am SE 5 7 - - - - - - - 13.5 1023.7 0.0
14/12:00am SE 6 7 - - - - - - - 13.4 1023.7 0.0
 
Date/Time
CST
Wind Sea
Height
m
Swell Vis
km
Cloud Weather Temp
°C
Press
MSL
hPa
Rain since
9am
mm
Dir  Spd
kts
Gust
kts
Height
m
Period
s
Dir
13/11:30pm SE 5 7 - - - - - - - 14.0 1024.0 0.0
13/11:00pm ESE 7 9 - - - - - - - 14.6 1024.1 0.0
13/10:30pm SE 6 8 - - - - - - - 14.6 1024.2 0.0
13/10:00pm SE 7 9 - - - - - - - 15.0 1024.4 0.0
13/09:30pm SE 7 10 - - - - - - - 14.8 1024.5 0.0
13/09:00pm SSE 7 9 - - - - - - - 14.9 1024.5 0.0
13/08:30pm SSE 6 7 - - - - - - - 14.5 1024.5 0.0
13/08:00pm SSE 7 8 - - - - - - - 14.7 1024.4 0.0
13/07:30pm SSE 6 8 - - - - - - - 14.7 1024.3 0.0
13/07:00pm SSE 5 8 - - - - - - - 15.0 1023.9 0.0
13/06:30pm SSE 5 6 - - - - - - - 14.8 1023.6 0.0
13/06:00pm SE 3 4 - - - - - - - 15.1 1023.3 0.0
13/05:30pm SSE 5 6 - - - - - - - 16.2 1023.3 0.0
13/05:00pm SE 7 9 - - - - - - - 16.6 1023.0 0.0
13/04:30pm SSE 8 11 - - - - - - - 16.9 1022.9 0.0
13/04:00pm SE 8 9 - - - - - - - 17.2 1023.2 0.0
13/03:30pm SSE 9 12 - - - - - - - 17.6 1023.3 0.0
13/03:00pm SSE 9 12 - - - - - - - 17.4 1023.6 0.0
13/02:30pm SSE 8 11 - - - - - - - 17.2 1023.8 0.0
13/02:00pm SSE 9 13 - - - - - - - 17.6 1024.0 0.0
13/01:30pm S 9 12 - - - - - - - 18.1 1024.3 0.0
13/01:00pm SSE 9 13 - - - - - - - 17.8 1024.7 0.0
13/12:30pm SSE 8 12 - - - - - - - 17.4 1025.1 0.0
13/12:00pm S 8 12 - - - - - - - 17.6 1025.5 0.0
13/11:30am SSE 7 10 - - - - - - - 16.8 1025.6 0.0
13/11:00am SSE 7 11 - - - - - - - 18.1 1025.7 0.0
13/10:30am S 6 10 - - - - - - - 17.5 1025.7 0.0
13/10:00am ENE 1 4 - - - - - - - 17.1 1025.9 0.0
13/09:30am SSW 3 5 - - - - - - - 17.0 1026.0 0.0
13/09:00am SW 3 5 - - - - - - - 16.5 1025.9 0.0
13/08:30am SW 2 4 - - - - - - - 16.1 1025.8 0.0
13/08:00am SW 3 4 - - - - - - - 15.9 1025.4 0.0
13/07:30am WSW 3 7 - - - - - - - 15.4 1025.0 0.0
13/07:00am SW 2 3 - - - - - - - 14.5 1024.9 0.0
13/06:30am S 6 8 - - - - - - - 15.1 1024.7 0.0
13/06:00am S 2 5 - - - - - - - 14.7 1024.6 0.0
13/05:30am S 3 5 - - - - - - - 14.2 1024.6 0.0
13/05:00am W 3 4 - - - - - - - 12.6 1024.4 0.0
13/04:30am W 3 3 - - - - - - - 11.3 1024.3 0.0
13/04:00am WSW 2 3 - - - - - - - 11.0 1024.2 0.0
13/03:30am SW 2 4 - - - - - - - 10.8 1024.0 0.0
13/03:00am SSW 3 4 - - - - - - - 12.1 1023.9 0.0
13/02:30am S 4 5 - - - - - - - 12.8 1024.1 0.0
13/02:00am SSW 5 6 - - - - - - - 13.0 1024.4 0.0
13/01:30am SSE 5 7 - - - - - - - 14.1 1024.4 0.0
13/01:00am S 5 6 - - - - - - - 14.7 1024.5 0.0
13/12:30am S 4 5 - - - - - - - 15.0 1024.6 0.0
13/12:00am S 6 8 - - - - - - - 15.4 1024.7 0.0
 
Date/Time
CST
Wind Sea
Height
m
Swell Vis
km
Cloud Weather Temp
°C
Press
MSL
hPa
Rain since
9am
mm
Dir  Spd
kts
Gust
kts
Height
m
Period
s
Dir
12/11:30pm SSE 4 6 - - - - - - - 15.1 1024.6 0.0
12/11:00pm S 7 10 - - - - - - - 15.1 1024.7 0.0
12/10:30pm SSE 7 12 - - - - - - - 14.9 1024.6 0.0
12/10:00pm SSE 3 6 - - - - - - - 12.5 1024.7 0.0
12/09:30pm SE 4 5 - - - - - - - 13.1 1024.7 0.0
12/09:00pm SE 5 6 - - - - - - - 12.5 1024.5 0.0
12/08:30pm E 5 5 - - - - - - - 10.2 1024.3 0.0
12/08:00pm CALM 0 0 - - - - - - - 10.9 1024.2 0.0
12/07:30pm WSW 3 5 - - - - - - - 12.3 1024.3 0.0
12/07:00pm WSW 5 7 - - - - - - - 12.2 1024.1 0.0
12/06:30pm WSW 3 4 - - - - - - - 12.6 1024.1 0.0
12/06:00pm SW 3 4 - - - - - - - 14.1 1023.8 0.0
12/05:30pm SSW 5 6 - - - - - - - 15.7 1023.7 0.0
12/05:00pm SW 5 7 - - - - - - - 16.6 1023.6 0.0
12/04:30pm SSW 5 8 - - - - - - - 16.8 1023.3 0.0
12/04:00pm SSW 6 10 - - - - - - - 16.9 1023.3 0.0
12/03:30pm SSW 5 9 - - - - - - - 17.6 1023.3 0.0
12/03:00pm SSE 6 9 - - - - - - - 17.0 1023.4 0.0
12/02:30pm S 6 10 - - - - - - - 17.4 1023.7 0.0
12/02:00pm SSW 7 9 - - - - - - - 16.7 1023.9 0.0
12/01:30pm SSW 7 11 - - - - - - - 17.1 1024.1 0.0
12/01:00pm S 7 9 - - - - - - - 17.0 1024.4 0.0
12/12:30pm S 6 8 - - - - - - - 17.2 1024.9 0.0
12/12:00pm SSE 6 10 - - - - - - - 17.0 1025.3 0.0
12/11:30am SSE 5 9 - - - - - - - 17.2 1025.6 0.0
12/11:00am S 7 10 - - - - - - - 16.9 1025.7 0.0
12/10:30am S 6 10 - - - - - - - 16.6 1025.9 0.0
12/10:00am S 7 10 - - - - - - - 16.4 1026.0 0.0
12/09:30am S 6 9 - - - - - - - 15.7 1026.1 0.0
12/09:00am SW 6 10 - - - - - - - 15.9 1026.3 0.0
12/08:30am WSW 6 8 - - - - - - - 15.9 1026.2 0.0
12/08:00am S 5 7 - - - - - - - 15.7 1026.0 0.0
12/07:30am W 2 4 - - - - - - - 15.4 1025.5 0.0
12/07:00am WSW 4 7 - - - - - - - 15.2 1025.1 0.0
12/06:30am SW 4 7 - - - - - - - 15.2 1024.8 0.0
12/06:00am SW 3 5 - - - - - - - 15.1 1024.6 0.0
12/05:30am SSW 4 5 - - - - - - - 15.0 1024.4 0.0
12/05:00am SSW 4 7 - - - - - - - 15.1 1024.1 0.0
12/04:30am SSW 3 5 - - - - - - - 15.4 1023.7 0.0
12/04:00am S 4 8 - - - - - - - 15.4 1023.6 0.0
12/03:30am SSE 6 9 - - - - - - - 15.6 1023.7 0.0
12/03:00am S 6 9 - - - - - - - 15.5 1023.6 0.0
12/02:30am S 6 7 - - - - - - - 15.5 1024.1 0.0
12/02:00am SSE 7 9 - - - - - - - 15.6 1024.4 0.0
12/01:30am S 8 10 - - - - - - - 15.5 1024.7 0.0
12/01:00am S 6 9 - - - - - - - 15.6 1024.8 0.0
12/12:30am S 5 8 - - - - - - - 15.4 1024.8 0.0

Other formats

Comma delimited format used in spreadsheet applications
http://www.bom.gov.au/fwo/IDS60701/IDS60701.94809.axf

JavaScript Object Notation format (JSON) in row-major order
http://www.bom.gov.au/fwo/IDS60701/IDS60701.94809.json

Data quality

Most of these data are generated automatically and are frequently updated. Quality checks on data are not normally performed. It is possible for incorrect values to appear. Refer to information at About Latest Weather Observations and please check the disclaimer before using these data.